Time;durP1;ratioP1;P1;durP2;ratioP2;P2;SDS_P1;SDS_P2;PMS_P1;PMS_P2;Temp;Humidity;BMP_temperature;BMP_pressure;BME280_temperature;BME280_humidity;BME280_pressure;Samples;Min_cycle;Max_cycle;Signal;HPM_P1;HPM_P2
2022/06/28 00:01:00;;;;;;;;;;;;;;;14.17;63.25488;102068.8;;;;-84
2022/06/28 00:01:11;;;;;;;5.7;1;;;;;;;;;;;;;-82
2022/06/28 00:06:02;;;;;;;;;;;;;;;14.17;63.60352;102064.9;;;;-83
2022/06/28 00:11:01;;;;;;;;;;;;;;;14.14;63.62109;102067.7;;;;-84
2022/06/28 00:16:14;;;;;;;;;;;;;;;14.09;63.32324;102063.8;;;;-84
2022/06/28 00:21:02;;;;;;;;;;;;;;;14.06;63.25195;102064.5;;;;-83
2022/06/28 00:26:02;;;;;;;;;;;;;;;14.01;63.53516;102066.1;;;;-84
2022/06/28 00:31:02;;;;;;;;;;;;;;;14;63.72363;102070.3;;;;-82
2022/06/28 00:31:12;;;;;;;6.1;1.3;;;;;;;;;;;;;-82
2022/06/28 00:36:02;;;;;;;;;;;;;;;13.96;63.96484;102070;;;;-83
2022/06/28 00:41:01;;;;;;;;;;;;;;;13.94;64.04199;102070.9;;;;-82
2022/06/28 00:46:01;;;;;;;;;;;;;;;13.91;63.74512;102071.3;;;;-83
2022/06/28 00:51:03;;;;;;;;;;;;;;;13.87;64.51172;102071.1;;;;-82
2022/06/28 00:56:02;;;;;;;;;;;;;;;13.86;64.12891;102071.2;;;;-85
2022/06/28 01:01:01;;;;;;;;;;;;;;;13.83;64.40625;102073.2;;;;-84
2022/06/28 01:01:13;;;;;;;5.3;1.2;;;;;;;;;;;;;-84
2022/06/28 01:06:02;;;;;;;;;;;;;;;13.83;64.2373;102084.5;;;;-83
2022/06/28 01:11:18;;;;;;;;;;;;;;;13.81;64.58301;102082.3;;;;-83
2022/06/28 01:16:02;;;;;;;;;;;;;;;13.76;64.62988;102080.8;;;;-84
2022/06/28 01:21:02;;;;;;;;;;;;;;;13.75;64.72949;102081.8;;;;-84
2022/06/28 01:26:01;;;;;;;;;;;;;;;13.75;64.47168;102087;;;;-83
2022/06/28 01:31:01;;;;;;;;;;;;;;;13.73;63.86426;102087.5;;;;-84
2022/06/28 01:31:15;;;;;;;3.6;0.9;;;;;;;;;;;;;-82
2022/06/28 01:36:03;;;;;;;;;;;;;;;13.7;64.39746;102088.3;;;;-83
2022/06/28 01:41:08;;;;;;;;;;;;;;;13.67;64.42773;102094.3;;;;-83
2022/06/28 01:46:08;;;;;;;;;;;;;;;13.64;64.34473;102090.6;;;;-84
2022/06/28 01:51:16;;;;;;;;;;;;;;;13.63;64.08496;102097.1;;;;-84
2022/06/28 01:56:03;;;;;;;;;;;;;;;13.61;64.02539;102100.9;;;;-83
2022/06/28 02:01:03;;;;;;;;;;;;;;;13.59;64.24609;102098.7;;;;-83
2022/06/28 02:01:16;;;;;;;3.3;1.1;;;;;;;;;;;;;-83
2022/06/28 02:06:01;;;;;;;;;;;;;;;13.59;64.03516;102096;;;;-83
2022/06/28 02:11:04;;;;;;;;;;;;;;;13.56;64.43262;102098.7;;;;-82
2022/06/28 02:16:02;;;;;;;;;;;;;;;13.53;64.40625;102101.1;;;;-79
2022/06/28 02:21:01;;;;;;;;;;;;;;;13.52;64.80762;102104.6;;;;-83
2022/06/28 02:26:04;;;;;;;;;;;;;;;13.53;64.95508;102108.4;;;;-83
2022/06/28 02:31:01;;;;;;;;;;;;;;;13.52;64.96484;102111.4;;;;-83
2022/06/28 02:31:18;;;;;;;3;1;;;;;;;;;;;;;-82
2022/06/28 02:41:03;;;;;;;;;;;;;;;13.43;64.48242;102119.2;;;;-84
2022/06/28 02:46:00;;;;;;;;;;;;;;;13.42;64.65918;102120.3;;;;-83
2022/06/28 02:51:02;;;;;;;;;;;;;;;13.38;64.74121;102118.6;;;;-84
2022/06/28 02:56:01;;;;;;;;;;;;;;;13.37;65.41309;102124.8;;;;-83
2022/06/28 03:01:01;;;;;;;;;;;;;;;13.34;64.88281;102123.8;;;;-83
2022/06/28 03:01:19;;;;;;;3.7;0.9;;;;;;;;;;;;;-82
2022/06/28 03:06:01;;;;;;;;;;;;;;;13.33;65.2373;102124;;;;-83
2022/06/28 03:11:00;;;;;;;;;;;;;;;13.31;65.12402;102128.9;;;;-82
2022/06/28 03:16:00;;;;;;;;;;;;;;;13.28;65.0957;102130.1;;;;-82
2022/06/28 03:21:00;;;;;;;;;;;;;;;13.25;65.33887;102133.9;;;;-81
2022/06/28 03:26:01;;;;;;;;;;;;;;;13.25;65.33789;102137.5;;;;-84
2022/06/28 03:31:00;;;;;;;;;;;;;;;13.24;66.04102;102144.1;;;;-83
2022/06/28 03:31:19;;;;;;;4.3;1.1;;;;;;;;;;;;;-83
2022/06/28 03:36:01;;;;;;;;;;;;;;;13.24;65.91797;102148.7;;;;-84
2022/06/28 03:41:01;;;;;;;;;;;;;;;13.23;66.36426;102151.1;;;;-82
2022/06/28 03:46:01;;;;;;;;;;;;;;;13.22;66.15039;102157.9;;;;-83
2022/06/28 03:51:02;;;;;;;;;;;;;;;13.24;66.15234;102154.1;;;;-82
2022/06/28 03:56:00;;;;;;;;;;;;;;;13.24;65.75;102152;;;;-82
2022/06/28 04:01:01;;;;;;;;;;;;;;;13.23;65.49121;102160;;;;-84
2022/06/28 04:01:21;;;;;;;5.2;1.1;;;;;;;;;;;;;-83
2022/06/28 04:06:00;;;;;;;;;;;;;;;13.25;65.46191;102158.9;;;;-83
2022/06/28 04:16:02;;;;;;;;;;;;;;;13.26;66.26855;102162.2;;;;-83
2022/06/28 04:21:01;;;;;;;;;;;;;;;13.29;65.85938;102164.5;;;;-84
2022/06/28 04:26:03;;;;;;;;;;;;;;;13.31;65.58105;102168.8;;;;-84
2022/06/28 04:31:02;;;;;;;;;;;;;;;13.34;66.19141;102171.7;;;;-85
2022/06/28 04:31:22;;;;;;;4.2;1.1;;;;;;;;;;;;;-84
2022/06/28 04:36:01;;;;;;;;;;;;;;;13.36;66.16113;102173.5;;;;-83
2022/06/28 04:41:03;;;;;;;;;;;;;;;13.4;66.80176;102170.5;;;;-82
2022/06/28 04:46:02;;;;;;;;;;;;;;;13.41;66.96191;102173.3;;;;-83
2022/06/28 04:51:10;;;;;;;;;;;;;;;13.48;67.09473;102173.5;;;;-83
2022/06/28 04:56:01;;;;;;;;;;;;;;;13.53;67.86133;102178.5;;;;-83
2022/06/28 05:01:01;;;;;;;;;;;;;;;13.57;67.9375;102180.4;;;;-83
2022/06/28 05:01:24;;;;;;;5.7;1.2;;;;;;;;;;;;;-85
2022/06/28 05:06:03;;;;;;;;;;;;;;;13.63;67.85645;102187.6;;;;-83
2022/06/28 05:11:02;;;;;;;;;;;;;;;13.69;67.95508;102185;;;;-83
2022/06/28 05:16:02;;;;;;;;;;;;;;;13.76;68.87305;102187.7;;;;-82
2022/06/28 05:21:02;;;;;;;;;;;;;;;13.86;68.91113;102192.3;;;;-84
2022/06/28 05:26:01;;;;;;;;;;;;;;;14.13;69.51172;102180.4;;;;-84
2022/06/28 05:31:01;;;;;;;;;;;;;;;14.68;68.62305;102186.4;;;;-84
2022/06/28 05:31:25;;;;;;;6.5;1.3;;;;;;;;;;;;;-82
2022/06/28 05:36:02;;;;;;;;;;;;;;;15.44;68.58496;102186.2;;;;-84
2022/06/28 05:41:02;;;;;;;;;;;;;;;16.19;66.75391;102184.2;;;;-84
2022/06/28 05:46:01;;;;;;;;;;;;;;;16.88;65.38281;102178.2;;;;-83
2022/06/28 05:51:01;;;;;;;;;;;;;;;17.54;63.67285;102180.5;;;;-82
2022/06/28 05:56:02;;;;;;;;;;;;;;;18.16;62.44727;102178.6;;;;-84
2022/06/28 06:01:06;;;;;;;;;;;;;;;18.62;61.67578;102171.5;;;;-82
2022/06/28 06:01:31;;;;;;;5.1;1.4;;;;;;;;;;;;;-83
2022/06/28 06:06:03;;;;;;;;;;;;;;;19.08;60.70605;102172.3;;;;-85
2022/06/28 06:11:01;;;;;;;;;;;;;;;19.56;59.85059;102175.7;;;;-85
2022/06/28 06:16:01;;;;;;;;;;;;;;;20;58.93164;102178.7;;;;-83
2022/06/28 06:21:01;;;;;;;;;;;;;;;20.37;58.20703;102180.9;;;;-83
2022/06/28 06:26:01;;;;;;;;;;;;;;;20.73;57.41992;102182.6;;;;-83
2022/06/28 06:31:01;;;;;;;;;;;;;;;21.07;56.55078;102178.7;;;;-83
2022/06/28 06:31:32;;;;;;;8.9;1.6;;;;;;;;;;;;;-83
2022/06/28 06:36:01;;;;;;;;;;;;;;;21.36;55.94922;102184.6;;;;-83
2022/06/28 06:41:01;;;;;;;;;;;;;;;21.64;55.41211;102176.4;;;;-83
2022/06/28 06:46:01;;;;;;;;;;;;;;;21.97;54.81348;102181.8;;;;-83
2022/06/28 06:51:01;;;;;;;;;;;;;;;22.26;53.9541;102180.3;;;;-84
2022/06/28 06:56:00;;;;;;;;;;;;;;;22.6;53.22656;102177.1;;;;-82
2022/06/28 07:01:09;;;;;;;;;;;;;;;22.91;52.7832;102181.3;;;;-85
2022/06/28 07:01:33;;;;;;;8.7;1.6;;;;;;;;;;;;;-84
2022/06/28 07:06:01;;;;;;;;;;;;;;;23.21;52.16406;102182;;;;-84
2022/06/28 07:11:01;;;;;;;;;;;;;;;23.49;51.28906;102187.4;;;;-83
2022/06/28 07:16:01;;;;;;;;;;;;;;;23.8;50.61035;102185.9;;;;-83
2022/06/28 07:21:02;;;;;;;;;;;;;;;24.06;49.82227;102184.5;;;;-82
2022/06/28 07:26:01;;;;;;;;;;;;;;;24.3;49.03125;102178.9;;;;-83
2022/06/28 07:31:03;;;;;;;;;;;;;;;24.51;48.47656;102182.6;;;;-82
2022/06/28 07:31:34;;;;;;;7.2;1.7;;;;;;;;;;;;;-82
2022/06/28 07:36:00;;;;;;;;;;;;;;;24.75;48.08691;102184.4;;;;-82
2022/06/28 07:41:06;;;;;;;;;;;;;;;24.97;47.52246;102189.7;;;;-83
2022/06/28 07:46:02;;;;;;;;;;;;;;;25.08;47.0957;102186.8;;;;-86
2022/06/28 07:56:13;;;;;;;;;;;;;;;25.5;46.15723;102197.4;;;;-84
2022/06/28 08:01:12;;;;;;;;;;;;;;;25.75;45.8125;102192;;;;-84
2022/06/28 08:01:38;;;;;;;5.9;1.3;;;;;;;;;;;;;-83
2022/06/28 08:06:03;;;;;;;;;;;;;;;25.77;44.99219;102202;;;;-82
2022/06/28 08:11:01;;;;;;;;;;;;;;;25.6;45.32227;102199.3;;;;-84
2022/06/28 08:16:03;;;;;;;;;;;;;;;25.64;45.16406;102198.2;;;;-84
2022/06/28 08:21:01;;;;;;;;;;;;;;;25.93;44.93848;102193.8;;;;-84
2022/06/28 08:26:01;;;;;;;;;;;;;;;26.29;43.88574;102192.6;;;;-85
2022/06/28 08:31:02;;;;;;;;;;;;;;;26.5;42.93164;102197.9;;;;-83
2022/06/28 08:31:42;;;;;;;8.2;1.5;;;;;;;;;;;;;-83
2022/06/28 08:36:04;;;;;;;;;;;;;;;26.69;42.8457;102189.2;;;;-83
2022/06/28 08:41:01;;;;;;;;;;;;;;;26.83;42.55664;102188.1;;;;-84
2022/06/28 08:46:03;;;;;;;;;;;;;;;26.94;41.65039;102182.9;;;;-86
2022/06/28 08:51:07;;;;;;;;;;;;;;;27.01;41.54004;102178;;;;-84
2022/06/28 08:56:02;;;;;;;;;;;;;;;27.1;41.12988;102175.9;;;;-81
2022/06/28 09:01:06;;;;;;;;;;;;;;;27.07;40.18555;102172.5;;;;-83
2022/06/28 09:01:46;;;;;;;4.7;1.1;;;;;;;;;;;;;-85
2022/06/28 09:06:03;;;;;;;;;;;;;;;27.01;39.73828;102162.2;;;;-84
2022/06/28 09:11:05;;;;;;;;;;;;;;;26.92;38.87012;102164.3;;;;-84
2022/06/28 09:16:02;;;;;;;;;;;;;;;26.67;39.89453;102157.7;;;;-84
2022/06/28 09:21:00;;;;;;;;;;;;;;;26.73;40.13184;102155.1;;;;-80
2022/06/28 09:26:01;;;;;;;;;;;;;;;26.93;39.60449;102158.4;;;;-78
2022/06/28 09:31:10;;;;;;;;;;;;;;;27.22;38.86133;102148.2;;;;-78
2022/06/28 09:31:49;;;;;;;4.5;1.2;;;;;;;;;;;;;-79
2022/06/28 09:36:03;;;;;;;;;;;;;;;27.47;38.63867;102149.2;;;;-78
2022/06/28 09:41:00;;;;;;;;;;;;;;;27.54;38.1084;102150.1;;;;-78
2022/06/28 09:46:00;;;;;;;;;;;;;;;27.67;38.02734;102149.3;;;;-78
2022/06/28 09:51:04;;;;;;;;;;;;;;;28;38.29883;102146.7;;;;-78
2022/06/28 09:56:02;;;;;;;;;;;;;;;28.31;37.77734;102147.3;;;;-78
2022/06/28 10:01:00;;;;;;;;;;;;;;;28.42;37.62305;102142.6;;;;-79
2022/06/28 10:01:55;;;;;;;4.9;1.5;;;;;;;;;;;;;-75
2022/06/28 10:06:02;;;;;;;;;;;;;;;28.5;36.77734;102139.7;;;;-79
2022/06/28 10:11:00;;;;;;;;;;;;;;;28.65;36.77832;102139.9;;;;-78
2022/06/28 10:16:04;;;;;;;;;;;;;;;28.89;36.43457;102132.9;;;;-78
2022/06/28 10:21:01;;;;;;;;;;;;;;;29.18;36.87988;102137.6;;;;-79
2022/06/28 10:26:13;;;;;;;;;;;;;;;29.43;35.22656;102139.8;;;;-78
2022/06/28 10:31:20;;;;;;;;;;;;;;;29.54;35.84375;102133.6;;;;-78
2022/06/28 10:31:57;;;;;;;7.1;1.6;;;;;;;;;;;;;-78
2022/06/28 10:36:00;;;;;;;;;;;;;;;29.79;35.5127;102118.8;;;;-78
2022/06/28 10:41:10;;;;;;;;;;;;;;;30.07;35.41699;102119;;;;-79
2022/06/28 10:46:14;;;;;;;;;;;;;;;30.29;34.91797;102119.3;;;;-79
2022/06/28 10:51:04;;;;;;;;;;;;;;;30.48;34.09961;102113.4;;;;-77
2022/06/28 10:56:14;;;;;;;;;;;;;;;30.58;34.33008;102111.5;;;;-77
2022/06/28 11:01:00;;;;;;;;;;;;;;;30.78;35.23828;102106.9;;;;-78
2022/06/28 11:02:02;;;;;;;5.7;1.3;;;;;;;;;;;;;-77
2022/06/28 11:06:00;;;;;;;;;;;;;;;31.01;34.7627;102104;;;;-78
2022/06/28 11:11:09;;;;;;;;;;;;;;;31.19;34.74121;102097.2;;;;-77
2022/06/28 11:16:00;;;;;;;;;;;;;;;31.31;34.8916;102093;;;;-78
2022/06/28 11:21:00;;;;;;;;;;;;;;;31.48;35.55176;102092;;;;-78
2022/06/28 11:31:00;;;;;;;;;;;;;;;31.68;34.15527;102092.8;;;;-78
2022/06/28 11:32:17;;;;;;;6.3;1.4;;;;;;;;;;;;;-79
2022/06/28 11:36:02;;;;;;;;;;;;;;;31.72;34.11035;102078.8;;;;-77
2022/06/28 11:41:01;;;;;;;;;;;;;;;31.78;34.85645;102077.5;;;;-78
2022/06/28 11:46:00;;;;;;;;;;;;;;;31.88;34.8877;102083.5;;;;-79
2022/06/28 11:51:01;;;;;;;;;;;;;;;31.94;35.52734;102078.5;;;;-78
2022/06/28 11:56:01;;;;;;;;;;;;;;;32.01;35.49805;102078.6;;;;-76
2022/06/28 12:01:13;;;;;;;;;;;;;;;31.91;34.31348;102070.3;;;;-76
2022/06/28 12:02:11;;;;;;;5.5;1.2;;;;;;;;;;;;;-75
2022/06/28 12:06:02;;;;;;;;;;;;;;;31.96;34.90625;102074.9;;;;-77
2022/06/28 12:11:02;;;;;;;;;;;;;;;32.11;34.84668;102071.4;;;;-77
2022/06/28 12:16:00;;;;;;;;;;;;;;;32.18;35.12305;102069.6;;;;-75
2022/06/28 12:21:01;;;;;;;;;;;;;;;32.23;35.25684;102066.4;;;;-77
2022/06/28 12:26:07;;;;;;;;;;;;;;;32.2;34.77148;102071.2;;;;-77
2022/06/28 12:31:00;;;;;;;;;;;;;;;29.57;29.50879;102062.9;;;;-77
2022/06/28 12:32:16;;;;;;;7.9;1.2;;;;;;;;;;;;;-75
2022/06/28 12:36:00;;;;;;;;;;;;;;;28.62;30.72266;102065.8;;;;-76
2022/06/28 12:41:00;;;;;;;;;;;;;;;28.17;30.71582;102064.5;;;;-76
2022/06/28 12:46:00;;;;;;;;;;;;;;;27.81;30.41016;102059.7;;;;-75
2022/06/28 12:51:00;;;;;;;;;;;;;;;27.81;31.08789;102054.2;;;;-74
2022/06/28 12:56:00;;;;;;;;;;;;;;;28.09;30.53418;102060.6;;;;-79
2022/06/28 13:01:00;;;;;;;;;;;;;;;28.29;31.15625;102061.1;;;;-77
2022/06/28 13:02:21;;;;;;;5.3;1.3;;;;;;;;;;;;;-77
2022/06/28 13:06:00;;;;;;;;;;;;;;;29.99;31.98828;102059;;;;-77
2022/06/28 13:11:00;;;;;;;;;;;;;;;31.1;31.6543;102054.5;;;;-77
2022/06/28 13:16:00;;;;;;;;;;;;;;;31.85;30.98828;102052.3;;;;-76
2022/06/28 13:21:00;;;;;;;;;;;;;;;32.38;32.07422;102058.3;;;;-77
2022/06/28 13:26:00;;;;;;;;;;;;;;;32.86;31.3877;102055.3;;;;-79
2022/06/28 13:31:01;;;;;;;;;;;;;;;33.28;29.89258;102050.2;;;;-77
2022/06/28 13:32:25;;;;;;;3.4;0.9;;;;;;;;;;;;;-78
2022/06/28 13:36:00;;;;;;;;;;;;;;;33.62;31.97266;102046.4;;;;-82
2022/06/28 13:41:01;;;;;;;;;;;;;;;33.85;31.88184;102038.1;;;;-77
2022/06/28 13:46:00;;;;;;;;;;;;;;;34.05;31.31543;102040.9;;;;-78
2022/06/28 13:51:00;;;;;;;;;;;;;;;34.01;32.65039;102044.8;;;;-77
2022/06/28 13:56:01;;;;;;;;;;;;;;;33.76;32.49023;102043;;;;-77
2022/06/28 14:01:02;;;;;;;;;;;;;;;33.42;32.26563;102046.9;;;;-77
2022/06/28 14:02:30;;;;;;;4.1;1.2;;;;;;;;;;;;;-78
2022/06/28 14:06:00;;;;;;;;;;;;;;;33.04;31.93164;102042.5;;;;-78
2022/06/28 14:11:02;;;;;;;;;;;;;;;32.68;32.66113;102041.8;;;;-78
2022/06/28 14:16:00;;;;;;;;;;;;;;;32.26;33.13867;102036.2;;;;-77
2022/06/28 14:21:02;;;;;;;;;;;;;;;31.88;33.75781;102040.9;;;;-79
2022/06/28 14:26:00;;;;;;;;;;;;;;;31.53;34.12012;102037.4;;;;-76
2022/06/28 14:31:00;;;;;;;;;;;;;;;31.23;34.54395;102038.4;;;;-79
2022/06/28 14:32:36;;;;;;;5.2;1.2;;;;;;;;;;;;;-77
2022/06/28 14:36:00;;;;;;;;;;;;;;;31.09;34.68652;102025.2;;;;-77
2022/06/28 14:41:01;;;;;;;;;;;;;;;31.17;34.08105;102024;;;;-78
2022/06/28 14:46:00;;;;;;;;;;;;;;;31.33;33.6709;102015.6;;;;-77
2022/06/28 14:51:02;;;;;;;;;;;;;;;31.61;32.89063;102008;;;;-78
2022/06/28 14:56:01;;;;;;;;;;;;;;;31.96;32.3623;102006;;;;-77
2022/06/28 15:01:00;;;;;;;;;;;;;;;32.24;31.92285;101999.5;;;;-76
2022/06/28 15:02:40;;;;;;;4.5;1.1;;;;;;;;;;;;;-78
2022/06/28 15:06:01;;;;;;;;;;;;;;;32.47;32.26953;101996.3;;;;-77
2022/06/28 15:11:02;;;;;;;;;;;;;;;32.67;32.11914;101986.3;;;;-78
2022/06/28 15:16:00;;;;;;;;;;;;;;;32.84;32.36523;101984;;;;-73
2022/06/28 15:21:00;;;;;;;;;;;;;;;33;31.83496;101977.5;;;;-77
2022/06/28 15:31:00;;;;;;;;;;;;;;;33.18;32.23633;101975.5;;;;-77
2022/06/28 15:32:48;;;;;;;3.3;0.9;;;;;;;;;;;;;-79
2022/06/28 15:36:04;;;;;;;;;;;;;;;33.23;31.30664;101973.6;;;;-80
2022/06/28 15:41:00;;;;;;;;;;;;;;;33.33;32.88477;101965.6;;;;-77
2022/06/28 15:46:01;;;;;;;;;;;;;;;33.46;31.11035;101958.3;;;;-78
2022/06/28 15:51:00;;;;;;;;;;;;;;;33.52;32.0957;101952.6;;;;-75
2022/06/28 15:56:00;;;;;;;;;;;;;;;33.39;32.25195;101946.9;;;;-77
2022/06/28 16:01:00;;;;;;;;;;;;;;;33.32;32.74316;101931.2;;;;-77
2022/06/28 16:02:50;;;;;;;3.2;1;;;;;;;;;;;;;-77
2022/06/28 16:06:00;;;;;;;;;;;;;;;33.35;31.98926;101920.2;;;;-79
2022/06/28 16:11:00;;;;;;;;;;;;;;;33.32;32.38867;101917.5;;;;-78
2022/06/28 16:16:01;;;;;;;;;;;;;;;33.13;31.81934;101910.3;;;;-77
2022/06/28 16:21:00;;;;;;;;;;;;;;;32.79;32.10254;101899.8;;;;-78
2022/06/28 16:26:00;;;;;;;;;;;;;;;32.44;32.75;101903;;;;-78
2022/06/28 16:31:02;;;;;;;;;;;;;;;32.21;32.55664;101897.1;;;;-77
2022/06/28 16:32:55;;;;;;;2.6;1;;;;;;;;;;;;;-80
2022/06/28 16:36:00;;;;;;;;;;;;;;;32.08;31.73535;101896.4;;;;-79
2022/06/28 16:41:00;;;;;;;;;;;;;;;31.9;32.46387;101901.3;;;;-78
2022/06/28 16:46:00;;;;;;;;;;;;;;;31.67;32.75293;101898;;;;-78
2022/06/28 16:51:00;;;;;;;;;;;;;;;31.43;33.64258;101893.6;;;;-78
2022/06/28 16:56:01;;;;;;;;;;;;;;;31.28;33.34863;101887.8;;;;-77
2022/06/28 17:01:00;;;;;;;;;;;;;;;31.18;33.63574;101884.4;;;;-77
2022/06/28 17:03:00;;;;;;;3.3;1.1;;;;;;;;;;;;;-78
2022/06/28 17:06:00;;;;;;;;;;;;;;;31.14;33.32617;101881.8;;;;-78
2022/06/28 17:11:00;;;;;;;;;;;;;;;31.01;32.92969;101877.7;;;;-77
2022/06/28 17:16:00;;;;;;;;;;;;;;;30.82;34.16016;101881.8;;;;-79
2022/06/28 17:21:00;;;;;;;;;;;;;;;30.62;34.49805;101879.7;;;;-79
2022/06/28 17:26:00;;;;;;;;;;;;;;;30.44;34.37891;101876;;;;-78
2022/06/28 17:31:00;;;;;;;;;;;;;;;30.24;34.68066;101870.7;;;;-78
2022/06/28 17:33:04;;;;;;;2.6;1;;;;;;;;;;;;;-78
2022/06/28 17:36:00;;;;;;;;;;;;;;;30.03;35.08594;101859.2;;;;-81
2022/06/28 17:41:00;;;;;;;;;;;;;;;29.82;35.09277;101862.9;;;;-78
2022/06/28 17:46:00;;;;;;;;;;;;;;;29.62;35.37109;101871.2;;;;-77
2022/06/28 17:51:00;;;;;;;;;;;;;;;29.43;35.53125;101869.6;;;;-78
2022/06/28 17:56:00;;;;;;;;;;;;;;;29.2;35.39648;101864.7;;;;-75
2022/06/28 18:01:00;;;;;;;;;;;;;;;28.98;35.58887;101870.3;;;;-79
2022/06/28 18:03:09;;;;;;;2.9;0.9;;;;;;;;;;;;;-78
2022/06/28 18:06:00;;;;;;;;;;;;;;;28.73;35.66309;101869.2;;;;-78
2022/06/28 18:11:00;;;;;;;;;;;;;;;28.48;35.84277;101857.8;;;;-78
2022/06/28 18:16:00;;;;;;;;;;;;;;;28.27;35.76758;101858.5;;;;-80
2022/06/28 18:21:00;;;;;;;;;;;;;;;28.06;35.7041;101857.5;;;;-79
2022/06/28 18:26:00;;;;;;;;;;;;;;;27.86;35.54785;101858.2;;;;-78
2022/06/28 18:31:00;;;;;;;;;;;;;;;27.63;35.43652;101854;;;;-79
2022/06/28 18:33:13;;;;;;;3.4;0.9;;;;;;;;;;;;;-77
2022/06/28 18:36:00;;;;;;;;;;;;;;;27.45;35.77246;101859.4;;;;-79
2022/06/28 18:52:14;;;;;;;;;;;;;;;27.13;35.24609;101839.2;;;;-91
2022/06/28 18:56:56;;;;;;;;;;;;;;;26.66;35.65137;101840.2;;;;-92
2022/06/28 19:01:54;;;;;;;;;;;;;;;26.47;35.72949;101839.7;;;;-90
2022/06/28 19:15:50;;;;;;;;;;;;;;;25.7;36.46973;101836.5;;;;-91
2022/06/28 19:29:23;;;;;;;;;;;;;;;25.36;36.78906;101844.4;;;;-90
2022/06/28 19:33:36;;;;;;;3.8;1.1;;;;;;;;;;;;;-91
2022/06/28 19:34:02;;;;;;;;;;;;;;;24.65;37.61035;101839.3;;;;-92
2022/06/28 19:38:45;;;;;;;;;;;;;;;24.37;38.15332;101846.4;;;;-92
2022/06/28 19:48:31;;;;;;;;;;;;;;;23.85;38.83691;101850.3;;;;-90
2022/06/28 19:53:27;;;;;;;;;;;;;;;23.59;39.12598;101846.5;;;;-88
2022/06/28 19:58:45;;;;;;;;;;;;;;;23.35;39.45117;101846.2;;;;-91
2022/06/28 20:03:31;;;;;;;3.1;0.8;;;;;;;;;;;;;-89
2022/06/28 20:03:43;;;;;;;;;;;;;;;23.06;39.81738;101837.6;;;;-90
2022/06/28 20:08:30;;;;;;;;;;;;;;;22.92;40.01172;101851;;;;-91
2022/06/28 20:13:29;;;;;;;;;;;;;;;22.72;40.3623;101850.3;;;;-91
2022/06/28 20:18:33;;;;;;;;;;;;;;;22.51;40.82617;101849.8;;;;-92
2022/06/28 20:23:33;;;;;;;;;;;;;;;22.27;41.26465;101846;;;;-91
2022/06/28 20:28:29;;;;;;;;;;;;;;;22.11;41.50293;101844.8;;;;-90
2022/06/28 20:33:42;;;;;;;;;;;;;;;21.93;41.8418;101844;;;;-90
2022/06/28 20:34:02;;;;;;;2;0.8;;;;;;;;;;;;;-90
2022/06/28 20:38:30;;;;;;;;;;;;;;;21.77;42.14844;101848.9;;;;-90
2022/06/28 20:43:28;;;;;;;;;;;;;;;21.62;42.45605;101844.1;;;;-85
2022/06/28 20:48:29;;;;;;;;;;;;;;;21.47;42.79688;101842.7;;;;-84
2022/06/28 20:53:32;;;;;;;;;;;;;;;21.34;43.02637;101836.5;;;;-87
2022/06/28 20:58:28;;;;;;;;;;;;;;;21.21;43.05859;101840.9;;;;-87
2022/06/28 21:03:28;;;;;;;;;;;;;;;21.07;43.56152;101836.9;;;;-87
2022/06/28 21:03:39;;;;;;;3.9;1;;;;;;;;;;;;;-87
2022/06/28 21:08:30;;;;;;;;;;;;;;;20.94;44.0752;101830.6;;;;-86
2022/06/28 21:13:27;;;;;;;;;;;;;;;20.83;44.20117;101826.1;;;;-85
2022/06/28 21:18:26;;;;;;;;;;;;;;;20.7;44.49805;101822.2;;;;-86
2022/06/28 21:23:32;;;;;;;;;;;;;;;20.61;44.5332;101822.5;;;;-84
2022/06/28 21:28:26;;;;;;;;;;;;;;;20.49;44.85547;101816.9;;;;-85
2022/06/28 21:33:28;;;;;;;;;;;;;;;20.41;45.40625;101814.7;;;;-86
2022/06/28 21:33:39;;;;;;;2.4;1.1;;;;;;;;;;;;;-86
2022/06/28 21:43:28;;;;;;;;;;;;;;;20.22;45.39844;101811.6;;;;-86
2022/06/28 21:48:30;;;;;;;;;;;;;;;20.15;45.63086;101804.8;;;;-83
2022/06/28 21:53:39;;;;;;;;;;;;;;;20.06;45.94141;101799.5;;;;-85
2022/06/28 21:58:42;;;;;;;;;;;;;;;19.98;46.02539;101797.7;;;;-85
2022/06/28 22:03:54;;;;;;;;;;;;;;;19.9;46.30176;101796.9;;;;-87
2022/06/28 22:16:20;;;;;;;;;;;;;;;19.73;46.41016;101798.3;;;;-83
2022/06/28 22:26:21;;;;;;;;;;;;;;;19.57;46.74609;101802.5;;;;-85
2022/06/28 22:31:20;;;;;;;;;;;;;;;19.49;47.00195;101800.1;;;;-82
2022/06/28 22:33:38;;;;;;;2.3;1;;;;;;;;;;;;;-84
2022/06/28 22:36:26;;;;;;;;;;;;;;;19.42;47.1875;101794.1;;;;-84
2022/06/28 22:41:27;;;;;;;;;;;;;;;19.37;47.39941;101788;;;;-86
2022/06/28 22:46:20;;;;;;;;;;;;;;;19.3;47.79004;101786.3;;;;-84
2022/06/28 22:51:24;;;;;;;;;;;;;;;19.24;47.6123;101780.2;;;;-85
2022/06/28 22:56:22;;;;;;;;;;;;;;;19.18;47.73047;101776.3;;;;-83
2022/06/28 23:01:21;;;;;;;;;;;;;;;19.13;47.81738;101774.9;;;;-83
2022/06/28 23:03:47;;;;;;;2.7;1.2;;;;;;;;;;;;;-83
2022/06/28 23:06:24;;;;;;;;;;;;;;;19.06;47.99121;101772.9;;;;-83
2022/06/28 23:11:20;;;;;;;;;;;;;;;18.99;48.00781;101771.8;;;;-84
2022/06/28 23:16:22;;;;;;;;;;;;;;;18.94;48.41113;101767.2;;;;-84
2022/06/28 23:21:21;;;;;;;;;;;;;;;18.9;48.54395;101769.8;;;;-85
2022/06/28 23:26:21;;;;;;;;;;;;;;;18.84;49.36816;101763.5;;;;-83
2022/06/28 23:31:27;;;;;;;;;;;;;;;18.79;49.49902;101761.8;;;;-86
2022/06/28 23:33:45;;;;;;;3.6;1.2;;;;;;;;;;;;;-85
2022/06/28 23:36:20;;;;;;;;;;;;;;;18.75;50.16699;101757.9;;;;-85
2022/06/28 23:41:27;;;;;;;;;;;;;;;18.72;49.62793;101754.9;;;;-84
2022/06/28 23:46:20;;;;;;;;;;;;;;;18.68;49.71484;101750.7;;;;-84
2022/06/28 23:51:24;;;;;;;;;;;;;;;18.65;49.62109;101751.1;;;;-84
2022/06/28 23:56:19;;;;;;;;;;;;;;;18.59;50.28418;101743.8;;;;-84
